createdAt,value
2023-07-17T00:00:35.163Z,96.33
2023-07-17T00:02:43.602Z,95.62
2023-07-17T00:04:46.466Z,95.78
2023-07-17T00:06:49.357Z,95.76
2023-07-17T00:08:52.278Z,95.65
2023-07-17T00:10:55.318Z,95.68
2023-07-17T00:12:58.140Z,95.66
2023-07-17T00:15:01.104Z,95.59
2023-07-17T00:17:04.259Z,95.36
2023-07-17T00:19:07.027Z,94.80
2023-07-17T00:21:10.554Z,94.97
2023-07-17T00:23:13.408Z,94.75
2023-07-17T00:25:16.365Z,94.84
2023-07-17T00:27:19.172Z,94.52
2023-07-17T00:29:30.102Z,94.52
2023-07-17T00:31:33.180Z,94.42
2023-07-17T00:33:36.080Z,94.03
2023-07-17T00:35:39.019Z,93.94
2023-07-17T00:37:43.170Z,93.59
2023-07-17T00:39:46.095Z,93.64
2023-07-17T00:41:51.411Z,93.25
2023-07-17T00:43:54.164Z,93.04
2023-07-17T00:45:58.094Z,92.51
2023-07-17T00:48:01.403Z,92.09
2023-07-17T00:50:05.794Z,91.61
2023-07-17T00:52:11.518Z,91.16
2023-07-17T00:54:17.898Z,91.04
2023-07-17T00:56:20.640Z,91.05
2023-07-17T00:58:23.794Z,90.89
2023-07-17T01:00:26.728Z,90.68
2023-07-17T01:02:29.663Z,90.61
2023-07-17T01:04:32.476Z,90.46
2023-07-17T01:06:40.393Z,90.48
2023-07-17T01:08:43.535Z,90.28
2023-07-17T01:10:46.368Z,89.84
2023-07-17T01:12:49.155Z,89.36
2023-07-17T01:14:52.100Z,88.84
2023-07-17T01:16:54.977Z,88.45
2023-07-17T01:18:57.756Z,88.43
2023-07-17T01:21:00.671Z,88.08
2023-07-17T01:23:07.564Z,87.81
2023-07-17T01:25:10.459Z,87.50
2023-07-17T01:27:14.201Z,86.96
2023-07-17T01:29:17.239Z,86.99
2023-07-17T01:31:20.281Z,86.64
2023-07-17T01:33:23.426Z,86.20
2023-07-17T01:35:26.179Z,86.06
2023-07-17T01:37:28.964Z,85.56
2023-07-17T01:39:31.889Z,85.22
2023-07-17T01:41:34.922Z,84.68
2023-07-17T01:43:38.225Z,83.83
2023-07-17T01:45:41.050Z,83.83
2023-07-17T01:47:44.144Z,83.81
2023-07-17T01:49:46.893Z,83.45
2023-07-17T01:51:50.674Z,82.99
2023-07-17T01:53:53.474Z,82.36
2023-07-17T01:55:56.248Z,81.98
2023-07-17T01:58:00.029Z,81.73
2023-07-17T02:00:04.133Z,81.31
2023-07-17T02:02:10.504Z,80.29
2023-07-17T02:04:13.388Z,79.61
2023-07-17T02:06:18.526Z,79.09
2023-07-17T02:08:21.271Z,78.74
2023-07-17T02:10:24.287Z,78.23
2023-07-17T02:12:27.089Z,78.44
2023-07-17T02:14:29.991Z,78.43
2023-07-17T02:16:33.651Z,78.22
2023-07-17T02:18:36.861Z,77.38
2023-07-17T02:20:39.686Z,77.59
2023-07-17T02:22:42.613Z,77.83
2023-07-17T02:24:45.409Z,77.53
2023-07-17T02:26:48.240Z,77.44
2023-07-17T02:28:50.937Z,77.55
2023-07-17T02:30:53.786Z,77.74
2023-07-17T02:32:56.971Z,77.55
2023-07-17T02:35:00.162Z,77.50
2023-07-17T02:37:02.860Z,77.74
2023-07-17T02:39:05.856Z,77.92
2023-07-17T02:41:08.612Z,78.11
2023-07-17T02:43:11.441Z,77.87
2023-07-17T02:45:14.561Z,77.83
2023-07-17T02:47:18.384Z,77.47
2023-07-17T02:49:21.286Z,77.65
2023-07-17T02:51:24.063Z,77.21
2023-07-17T02:53:27.395Z,77.49
2023-07-17T02:55:30.150Z,77.67
2023-07-17T02:57:36.760Z,77.53
2023-07-17T02:59:39.615Z,77.43
2023-07-17T03:01:42.389Z,77.43
2023-07-17T03:03:45.078Z,77.34
2023-07-17T03:05:48.043Z,76.87
2023-07-17T03:07:52.050Z,76.82
2023-07-17T03:09:54.867Z,76.49
2023-07-17T03:11:57.690Z,75.63
2023-07-17T03:14:00.537Z,75.46
2023-07-17T03:16:03.666Z,75.48
2023-07-17T03:18:06.524Z,74.89
2023-07-17T03:20:12.904Z,74.64
2023-07-17T03:22:15.581Z,73.87
2023-07-17T03:24:18.378Z,73.95
2023-07-17T03:26:21.320Z,73.83
2023-07-17T03:28:24.223Z,73.41
2023-07-17T03:30:26.999Z,72.60
2023-07-17T03:32:35.034Z,72.45
2023-07-17T03:34:37.997Z,73.19
2023-07-17T03:36:41.108Z,72.77
2023-07-17T03:38:43.943Z,72.98
2023-07-17T03:40:46.784Z,72.81
2023-07-17T03:42:49.647Z,73.15
2023-07-17T03:44:52.623Z,73.14
2023-07-17T03:46:55.359Z,72.74
2023-07-17T03:48:58.526Z,72.56
2023-07-17T03:51:03.523Z,72.64
2023-07-17T03:53:06.573Z,73.08
2023-07-17T03:55:09.536Z,72.35
2023-07-17T03:57:12.496Z,72.54
2023-07-17T03:59:15.203Z,72.84
2023-07-17T04:01:18.215Z,72.83
2023-07-17T04:03:21.286Z,71.99
2023-07-17T04:05:24.069Z,71.77
2023-07-17T04:07:26.850Z,71.42
2023-07-17T04:09:29.566Z,70.58
2023-07-17T04:11:32.284Z,70.70
2023-07-17T04:13:35.133Z,70.65
2023-07-17T04:15:38.086Z,70.15
2023-07-17T04:17:40.876Z,70.22
2023-07-17T04:19:43.726Z,69.45
2023-07-17T04:21:46.455Z,69.47
2023-07-17T04:23:52.411Z,68.90
2023-07-17T04:25:55.391Z,69.46
2023-07-17T04:27:58.151Z,69.76
2023-07-17T04:30:00.848Z,69.09
2023-07-17T04:32:04.239Z,68.59
2023-07-17T04:34:06.953Z,68.28
2023-07-17T04:36:10.120Z,67.64
2023-07-17T04:38:13.093Z,68.06
2023-07-17T04:40:16.979Z,67.28
2023-07-17T04:42:19.767Z,67.07
2023-07-17T04:44:22.527Z,67.05
2023-07-17T04:46:25.940Z,66.89
2023-07-17T04:48:28.809Z,66.77
2023-07-17T04:50:32.084Z,66.76
2023-07-17T04:52:34.964Z,66.26
2023-07-17T04:54:37.788Z,66.55
2023-07-17T04:56:40.722Z,66.67
2023-07-17T04:58:43.413Z,66.32
2023-07-17T05:00:47.841Z,66.40
2023-07-17T05:02:50.818Z,66.32
2023-07-17T05:04:53.763Z,66.59
2023-07-17T05:07:00.080Z,66.01
2023-07-17T05:09:03.422Z,65.71
2023-07-17T05:11:06.558Z,65.71
2023-07-17T05:13:09.370Z,66.04
2023-07-17T05:15:12.220Z,66.84
2023-07-17T05:17:15.200Z,65.99
2023-07-17T05:19:18.041Z,65.63
2023-07-17T05:21:21.251Z,65.57
2023-07-17T05:23:24.822Z,65.19
2023-07-17T05:25:27.584Z,65.98
2023-07-17T05:27:30.469Z,66.23
2023-07-17T05:29:34.177Z,65.92
2023-07-17T05:31:36.979Z,66.39
2023-07-17T05:33:39.737Z,66.42
2023-07-17T05:35:42.531Z,66.69
2023-07-17T05:37:45.235Z,66.57
2023-07-17T05:39:47.995Z,66.49
2023-07-17T05:41:51.591Z,65.99
2023-07-17T05:43:54.397Z,65.81
2023-07-17T05:45:57.859Z,65.12
2023-07-17T05:48:02.874Z,65.72
2023-07-17T05:50:08.831Z,66.35
2023-07-17T05:52:12.663Z,66.65
2023-07-17T05:54:15.491Z,67.28
2023-07-17T05:56:18.375Z,67.79
2023-07-17T05:58:21.527Z,68.00
2023-07-17T06:00:25.020Z,67.89
2023-07-17T06:02:27.865Z,67.19
2023-07-17T06:04:30.743Z,67.63
2023-07-17T06:06:33.615Z,67.41
2023-07-17T06:08:36.395Z,67.98
2023-07-17T06:10:39.520Z,68.48
2023-07-17T06:12:42.202Z,67.99
2023-07-17T06:14:45.258Z,68.43
2023-07-17T06:16:48.105Z,68.29
2023-07-17T06:18:50.855Z,68.57
2023-07-17T06:20:53.615Z,68.20
2023-07-17T06:22:56.545Z,67.58
2023-07-17T06:24:59.520Z,68.08
2023-07-17T06:27:02.360Z,67.64
2023-07-17T06:29:06.909Z,67.43
2023-07-17T06:31:09.826Z,66.91
2023-07-17T06:33:12.644Z,66.03
2023-07-17T06:35:15.436Z,66.40
2023-07-17T06:37:18.666Z,66.00
2023-07-17T06:39:21.874Z,65.09
2023-07-17T06:41:24.694Z,63.94
2023-07-17T06:43:27.518Z,64.96
2023-07-17T06:45:31.737Z,64.42
2023-07-17T06:47:37.957Z,64.39
2023-07-17T06:49:42.601Z,64.27
2023-07-17T06:51:45.346Z,62.80
2023-07-17T06:53:48.049Z,62.65
2023-07-17T06:56:01.223Z,62.21
2023-07-17T06:58:04.197Z,61.88
2023-07-17T07:00:07.680Z,60.92
2023-07-17T07:02:11.108Z,61.81
2023-07-17T07:04:14.113Z,61.87
2023-07-17T07:06:17.312Z,61.01
2023-07-17T07:08:20.600Z,61.03
2023-07-17T07:10:23.555Z,60.37
2023-07-17T07:12:26.567Z,60.32
2023-07-17T07:14:29.403Z,59.73
2023-07-17T07:16:32.188Z,60.00
2023-07-17T07:18:35.333Z,59.94
2023-07-17T07:20:39.649Z,58.92
2023-07-17T07:22:42.491Z,58.54
2023-07-17T07:24:48.247Z,57.50
2023-07-17T07:26:51.311Z,58.22
2023-07-17T07:28:54.058Z,56.74
2023-07-17T07:30:58.985Z,56.92
2023-07-17T07:33:02.069Z,57.44
2023-07-17T07:35:05.171Z,56.89
2023-07-17T07:37:08.180Z,56.72
2023-07-17T07:39:12.360Z,56.32
2023-07-17T07:41:16.458Z,55.38
2023-07-17T07:43:19.176Z,54.97
2023-07-17T07:45:22.522Z,54.30
2023-07-17T07:47:25.710Z,54.13
2023-07-17T07:49:28.535Z,54.98
2023-07-17T07:51:31.394Z,54.59
2023-07-17T07:53:42.343Z,54.79
2023-07-17T07:55:46.204Z,55.28
2023-07-17T07:57:52.382Z,54.53
2023-07-17T07:59:55.329Z,54.75
2023-07-17T08:01:58.211Z,54.61
2023-07-17T08:04:00.990Z,54.72
2023-07-17T08:06:04.146Z,53.60
2023-07-17T08:08:07.021Z,54.03
2023-07-17T08:10:10.164Z,53.01
2023-07-17T08:12:13.050Z,52.88
2023-07-17T08:14:16.124Z,53.37
2023-07-17T08:16:19.044Z,53.05
2023-07-17T08:18:22.230Z,53.37
2023-07-17T08:20:25.212Z,52.71
2023-07-17T08:22:28.044Z,52.11
2023-07-17T08:24:31.074Z,51.11
2023-07-17T08:26:34.137Z,50.20
2023-07-17T08:28:37.257Z,48.94
2023-07-17T08:30:42.701Z,49.26
2023-07-17T08:32:45.707Z,49.87
2023-07-17T08:34:48.681Z,49.56
2023-07-17T08:36:52.163Z,49.37
2023-07-17T08:38:55.198Z,49.85
2023-07-17T08:41:00.628Z,49.74
2023-07-17T08:43:04.454Z,49.83
2023-07-17T08:45:10.835Z,49.54
2023-07-17T08:47:15.265Z,49.09
2023-07-17T08:49:20.933Z,49.82
2023-07-17T08:51:28.545Z,48.70
2023-07-17T08:53:34.890Z,47.91
2023-07-17T08:55:38.251Z,47.74
2023-07-17T08:57:43.684Z,47.25
2023-07-17T08:59:48.723Z,47.46
2023-07-17T09:01:51.727Z,47.44
2023-07-17T09:03:54.994Z,47.49
2023-07-17T09:05:57.874Z,46.99
2023-07-17T09:08:00.649Z,46.89
2023-07-17T09:10:24.650Z,46.82
2023-07-17T09:12:27.652Z,46.26
2023-07-17T09:14:30.444Z,46.92
2023-07-17T09:16:33.388Z,46.74
2023-07-17T09:18:37.757Z,46.51
2023-07-17T09:20:40.573Z,45.96
2023-07-17T09:22:43.957Z,46.31
2023-07-17T09:24:50.381Z,45.58
2023-07-17T09:26:57.915Z,45.52
2023-07-17T09:29:00.816Z,46.51
2023-07-17T09:31:04.065Z,45.83
2023-07-17T09:33:08.172Z,45.46
2023-07-17T09:35:14.944Z,46.30
2023-07-17T09:37:17.730Z,46.47
2023-07-17T09:39:20.541Z,46.20
2023-07-17T09:41:26.009Z,46.38
2023-07-17T09:43:32.587Z,46.57
2023-07-17T09:45:35.524Z,47.04
2023-07-17T09:47:39.269Z,47.06
2023-07-17T09:49:42.945Z,47.55
2023-07-17T09:51:46.393Z,47.36
2023-07-17T09:53:49.465Z,47.43
2023-07-17T09:55:54.002Z,47.31
2023-07-17T09:58:00.843Z,47.29
2023-07-17T10:00:06.349Z,47.45
2023-07-17T10:02:21.056Z,47.52
2023-07-17T10:04:44.014Z,47.42
2023-07-17T10:06:48.628Z,47.21
2023-07-17T10:08:52.144Z,46.78
2023-07-17T10:10:55.077Z,46.76
2023-07-17T10:12:58.757Z,46.89
2023-07-17T10:15:02.981Z,47.15
2023-07-17T10:17:24.181Z,47.51
2023-07-17T10:20:00.277Z,46.97
2023-07-17T10:22:03.118Z,47.03
2023-07-17T10:24:06.220Z,46.88
2023-07-17T10:26:10.653Z,47.22
2023-07-17T10:28:13.441Z,47.64
2023-07-17T10:30:26.616Z,47.46
2023-07-17T10:32:41.221Z,47.16
2023-07-17T10:34:52.480Z,47.08
2023-07-17T10:36:55.633Z,46.99
2023-07-17T10:39:00.460Z,46.98
2023-07-17T10:41:14.802Z,47.01
2023-07-17T10:43:20.111Z,47.35
2023-07-17T10:45:22.900Z,47.21
2023-07-17T10:47:25.955Z,47.46
2023-07-17T10:49:28.929Z,47.12
2023-07-17T10:51:31.679Z,46.75
2023-07-17T10:53:34.667Z,46.60
2023-07-17T10:55:38.032Z,46.98
2023-07-17T10:57:41.044Z,46.61
2023-07-17T10:59:44.261Z,46.10
2023-07-17T11:01:47.873Z,44.79
2023-07-17T11:03:54.705Z,44.66
2023-07-17T11:05:58.088Z,43.75
2023-07-17T11:08:01.009Z,44.04
2023-07-17T11:10:04.730Z,43.35
2023-07-17T11:12:08.761Z,43.82
2023-07-17T11:14:11.574Z,43.77
2023-07-17T11:16:14.766Z,43.05
2023-07-17T11:18:18.255Z,42.26
2023-07-17T11:20:21.218Z,42.65
2023-07-17T11:22:31.335Z,43.22
2023-07-17T11:24:34.241Z,43.48
2023-07-17T11:26:37.518Z,44.19
2023-07-17T11:28:41.571Z,44.96
2023-07-17T11:30:44.396Z,45.21
2023-07-17T11:32:59.339Z,44.27
2023-07-17T11:35:02.381Z,44.79
2023-07-17T11:37:06.434Z,44.57
2023-07-17T11:39:12.572Z,44.57
2023-07-17T11:41:15.399Z,44.37
2023-07-17T11:43:28.116Z,44.53
2023-07-17T11:45:32.058Z,44.65
2023-07-17T11:47:34.904Z,44.25
2023-07-17T11:49:40.583Z,43.70
2023-07-17T11:51:46.432Z,44.11
2023-07-17T11:53:55.004Z,43.75
2023-07-17T11:56:01.103Z,43.34
2023-07-17T11:58:37.783Z,42.72
2023-07-17T12:00:49.654Z,43.67
2023-07-17T12:02:52.976Z,43.42
2023-07-17T12:04:55.930Z,43.41
2023-07-17T12:06:59.194Z,43.33
2023-07-17T12:09:02.275Z,43.45
2023-07-17T12:11:05.184Z,43.28
2023-07-17T12:13:08.655Z,43.80
2023-07-17T12:15:12.450Z,43.65
2023-07-17T12:17:15.250Z,43.73
2023-07-17T12:19:19.688Z,43.14
2023-07-17T12:21:26.776Z,42.18
2023-07-17T12:23:32.803Z,41.51
2023-07-17T12:25:36.784Z,41.07
2023-07-17T12:27:39.713Z,40.48
2023-07-17T12:29:42.450Z,39.70
2023-07-17T12:31:45.471Z,39.70
2023-07-17T12:33:49.015Z,39.30
2023-07-17T12:35:51.818Z,39.37
2023-07-17T12:37:54.604Z,39.06
2023-07-17T12:39:58.047Z,38.30
2023-07-17T12:42:00.975Z,37.62
2023-07-17T12:44:03.849Z,37.56
2023-07-17T12:46:07.139Z,37.22
2023-07-17T12:48:10.759Z,37.07
2023-07-17T12:50:13.647Z,37.58
2023-07-17T12:52:16.980Z,37.63
2023-07-17T12:54:20.584Z,37.22
2023-07-17T12:56:26.799Z,36.39
2023-07-17T12:58:31.002Z,36.27
2023-07-17T13:00:33.844Z,36.17
2023-07-17T13:02:36.799Z,36.25
2023-07-17T13:04:39.691Z,36.75
2023-07-17T13:06:42.406Z,36.95
2023-07-17T13:08:45.144Z,37.52
2023-07-17T13:10:47.913Z,38.09
2023-07-17T13:12:50.654Z,38.76
2023-07-17T13:14:53.406Z,38.30
2023-07-17T13:16:58.128Z,37.40
2023-07-17T13:19:01.567Z,37.01
2023-07-17T13:21:06.041Z,36.46
2023-07-17T13:23:08.798Z,36.72
2023-07-17T13:25:11.692Z,36.45
2023-07-17T13:27:14.458Z,36.43
2023-07-17T13:29:17.199Z,37.19
2023-07-17T13:31:19.999Z,38.19
2023-07-17T13:33:22.731Z,38.45
2023-07-17T13:35:25.544Z,38.79
2023-07-17T13:37:28.253Z,39.56
2023-07-17T13:39:31.014Z,39.48
2023-07-17T13:41:42.561Z,39.33
2023-07-17T13:43:45.599Z,39.55
2023-07-17T13:45:48.385Z,39.92
2023-07-17T13:47:51.032Z,40.68
2023-07-17T13:49:53.802Z,40.86
2023-07-17T13:51:56.672Z,41.38
2023-07-17T13:53:59.396Z,41.95
2023-07-17T13:56:02.242Z,41.88
2023-07-17T13:58:05.322Z,42.08
2023-07-17T14:00:08.752Z,41.86
2023-07-17T14:02:11.510Z,41.46
2023-07-17T14:04:14.394Z,41.10
2023-07-17T14:06:17.427Z,41.47
2023-07-17T14:08:20.774Z,41.37
2023-07-17T14:10:23.970Z,40.68
2023-07-17T14:12:26.747Z,40.92
2023-07-17T14:14:30.716Z,41.08
2023-07-17T14:16:33.649Z,41.09
2023-07-17T14:18:40.739Z,41.64
2023-07-17T14:20:43.501Z,42.17
2023-07-17T14:22:46.483Z,42.38
2023-07-17T14:24:49.211Z,42.35
2023-07-17T14:26:51.895Z,42.60
2023-07-17T14:28:54.661Z,41.91
2023-07-17T14:30:57.486Z,41.78
2023-07-17T14:33:00.263Z,41.84
2023-07-17T14:35:03.050Z,41.82
2023-07-17T14:37:07.410Z,42.01
2023-07-17T14:39:10.152Z,42.17
2023-07-17T14:41:13.026Z,41.94
2023-07-17T14:43:15.730Z,42.05
2023-07-17T14:45:18.489Z,41.72
2023-07-17T14:47:22.909Z,41.80
2023-07-17T14:49:26.006Z,42.00
2023-07-17T14:51:28.762Z,41.95
2023-07-17T14:53:33.830Z,41.84
2023-07-17T14:55:37.189Z,41.60
2023-07-17T14:57:40.379Z,41.44
2023-07-17T14:59:43.203Z,41.38
2023-07-17T15:01:46.149Z,41.42
2023-07-17T15:03:48.942Z,41.07
2023-07-17T15:05:51.656Z,40.19
2023-07-17T15:07:54.399Z,39.56
2023-07-17T15:09:57.078Z,39.98
2023-07-17T15:12:00.125Z,40.41
2023-07-17T15:14:12.809Z,40.58
2023-07-17T15:16:20.314Z,41.25
2023-07-17T15:18:23.580Z,41.91
2023-07-17T15:20:26.550Z,42.00
2023-07-17T15:22:30.566Z,42.67
2023-07-17T15:24:33.414Z,42.82
2023-07-17T15:26:36.455Z,43.19
2023-07-17T15:28:39.602Z,43.63
2023-07-17T15:30:43.052Z,43.85
2023-07-17T15:32:46.632Z,43.35
2023-07-17T15:34:49.727Z,43.11
2023-07-17T15:36:52.551Z,43.18
2023-07-17T15:38:55.624Z,43.12
2023-07-17T15:40:59.949Z,42.37
2023-07-17T15:43:05.412Z,41.79
2023-07-17T15:45:20.323Z,41.14
2023-07-17T15:47:23.401Z,41.23
2023-07-17T15:49:26.183Z,41.34
2023-07-17T15:51:29.198Z,41.47
2023-07-17T15:53:32.226Z,41.77
2023-07-17T15:55:34.938Z,42.46
2023-07-17T15:57:37.655Z,42.20
2023-07-17T15:59:40.464Z,42.39
2023-07-17T16:01:43.461Z,42.85
2023-07-17T16:03:46.255Z,43.07
2023-07-17T16:05:49.199Z,43.17
2023-07-17T16:07:51.964Z,43.74
2023-07-17T16:09:54.939Z,43.97
2023-07-17T16:11:57.771Z,44.27
2023-07-17T16:14:00.452Z,44.17
2023-07-17T16:16:04.260Z,44.10
2023-07-17T16:18:07.104Z,44.37
2023-07-17T16:20:10.261Z,44.50
2023-07-17T16:22:12.938Z,44.73
2023-07-17T16:24:15.867Z,45.08
2023-07-17T16:26:18.718Z,44.83
2023-07-17T16:28:21.678Z,45.45
2023-07-17T16:30:24.548Z,45.57
2023-07-17T16:32:27.512Z,45.76
2023-07-17T16:34:30.234Z,46.25
2023-07-17T16:36:35.401Z,46.23
2023-07-17T16:38:38.088Z,46.42
2023-07-17T16:40:40.913Z,46.69
2023-07-17T16:42:43.708Z,46.87
2023-07-17T16:44:46.417Z,47.13
2023-07-17T16:46:49.306Z,47.16
2023-07-17T16:48:52.115Z,47.24
2023-07-17T16:50:54.821Z,47.72
2023-07-17T16:52:57.516Z,47.72
2023-07-17T16:55:00.295Z,47.88
2023-07-17T16:57:03.570Z,48.00
2023-07-17T16:59:06.396Z,48.15
2023-07-17T17:01:09.314Z,48.34
2023-07-17T17:03:12.353Z,48.54
2023-07-17T17:05:15.776Z,48.52
2023-07-17T17:07:18.457Z,48.74
2023-07-17T17:09:21.290Z,48.92
2023-07-17T17:11:24.031Z,48.99
2023-07-17T17:13:27.009Z,48.99
2023-07-17T17:15:30.107Z,48.98
2023-07-17T17:17:33.675Z,49.22
2023-07-17T17:19:36.557Z,49.29
2023-07-17T17:21:39.350Z,49.43
2023-07-17T17:23:42.118Z,49.59
2023-07-17T17:25:45.101Z,49.81
2023-07-17T17:27:47.787Z,49.87
2023-07-17T17:29:50.525Z,50.13
2023-07-17T17:31:53.859Z,50.33
2023-07-17T17:33:56.794Z,50.60
2023-07-17T17:35:59.584Z,50.65
2023-07-17T17:38:02.511Z,50.83
2023-07-17T17:40:10.477Z,51.05
2023-07-17T17:42:13.546Z,51.22
2023-07-17T17:44:16.302Z,51.09
2023-07-17T17:46:19.187Z,51.43
2023-07-17T17:48:22.664Z,51.48
2023-07-17T17:50:25.331Z,51.67
2023-07-17T17:52:28.079Z,51.87
2023-07-17T17:54:30.808Z,52.03
2023-07-17T17:56:33.581Z,52.29
2023-07-17T17:58:36.367Z,52.29
2023-07-17T18:00:39.032Z,52.29
2023-07-17T18:02:41.931Z,52.36
2023-07-17T18:04:44.962Z,52.88
2023-07-17T18:06:47.859Z,53.85
2023-07-17T18:08:50.525Z,54.24
2023-07-17T18:10:53.362Z,54.98
2023-07-17T18:12:56.432Z,55.21
2023-07-17T18:14:59.115Z,55.23
2023-07-17T18:17:01.850Z,55.63
2023-07-17T18:19:05.265Z,55.38
2023-07-17T18:21:08.313Z,55.29
2023-07-17T18:23:11.574Z,55.03
2023-07-17T18:25:14.442Z,55.13
2023-07-17T18:27:17.176Z,54.85
2023-07-17T18:29:19.832Z,55.04
2023-07-17T18:31:22.967Z,55.11
2023-07-17T18:33:26.512Z,55.70
2023-07-17T18:35:29.211Z,55.20
2023-07-17T18:37:32.371Z,55.27
2023-07-17T18:39:35.153Z,55.19
2023-07-17T18:41:37.818Z,55.26
2023-07-17T18:43:40.621Z,55.52
2023-07-17T18:45:44.183Z,55.56
2023-07-17T18:47:46.981Z,55.63
2023-07-17T18:49:50.342Z,55.97
2023-07-17T18:51:53.474Z,55.94
2023-07-17T18:53:56.726Z,56.28
2023-07-17T18:55:59.564Z,56.55
2023-07-17T18:58:02.421Z,56.90
2023-07-17T19:00:07.597Z,57.40
2023-07-17T19:02:10.346Z,57.55
2023-07-17T19:04:13.280Z,58.01
2023-07-17T19:06:16.068Z,58.11
2023-07-17T19:08:19.052Z,58.05
2023-07-17T19:10:22.151Z,58.40
2023-07-17T19:12:24.940Z,58.45
2023-07-17T19:14:31.272Z,58.65
2023-07-17T19:16:34.130Z,58.55
2023-07-17T19:18:37.326Z,58.89
2023-07-17T19:20:41.551Z,58.92
2023-07-17T19:22:44.373Z,59.04
2023-07-17T19:24:48.002Z,59.18
2023-07-17T19:26:50.721Z,59.26
2023-07-17T19:28:53.470Z,59.47
2023-07-17T19:30:57.028Z,59.36
2023-07-17T19:32:59.826Z,59.68
2023-07-17T19:35:02.570Z,59.89
2023-07-17T19:37:07.445Z,59.97
2023-07-17T19:39:10.240Z,60.12
2023-07-17T19:41:14.356Z,60.10
2023-07-17T19:43:27.040Z,60.39
2023-07-17T19:45:29.859Z,60.17
2023-07-17T19:47:32.701Z,60.60
2023-07-17T19:49:36.210Z,61.02
2023-07-17T19:51:39.587Z,61.24
2023-07-17T19:53:42.341Z,61.60
2023-07-17T19:55:46.290Z,62.08
2023-07-17T19:57:49.073Z,62.20
2023-07-17T19:59:52.542Z,62.19
2023-07-17T20:01:58.704Z,62.53
2023-07-17T20:04:02.227Z,62.70
2023-07-17T20:06:06.056Z,62.65
2023-07-17T20:08:08.858Z,62.71
2023-07-17T20:10:11.616Z,63.35
2023-07-17T20:12:14.426Z,63.32
2023-07-17T20:14:17.128Z,63.29
2023-07-17T20:16:19.922Z,63.41
2023-07-17T20:18:22.627Z,63.56
2023-07-17T20:20:25.279Z,63.64
2023-07-17T20:22:28.236Z,63.53
2023-07-17T20:24:31.698Z,63.53
2023-07-17T20:26:36.200Z,63.89
2023-07-17T20:28:39.639Z,64.13
2023-07-17T20:30:43.214Z,64.10
2023-07-17T20:32:46.048Z,64.34
2023-07-17T20:34:48.910Z,64.30
2023-07-17T20:36:51.829Z,64.41
2023-07-17T20:38:54.568Z,64.40
2023-07-17T20:40:57.341Z,64.76
2023-07-17T20:43:01.051Z,64.46
2023-07-17T20:45:04.644Z,64.68
2023-07-17T20:47:09.315Z,64.77
2023-07-17T20:49:12.213Z,64.88
2023-07-17T20:51:15.747Z,65.09
2023-07-17T20:53:19.317Z,65.01
2023-07-17T20:55:23.879Z,65.00
2023-07-17T20:57:29.146Z,65.37
2023-07-17T20:59:33.241Z,65.31
2023-07-17T21:01:38.676Z,65.49
2023-07-17T21:03:43.974Z,65.67
2023-07-17T21:05:51.376Z,65.77
2023-07-17T21:07:56.396Z,65.95
2023-07-17T21:10:02.188Z,65.68
2023-07-17T21:12:09.552Z,65.88
2023-07-17T21:14:12.882Z,65.34
2023-07-17T21:16:15.798Z,65.57
2023-07-17T21:18:19.234Z,65.71
2023-07-17T21:20:22.288Z,65.99
2023-07-17T21:22:25.525Z,65.82
2023-07-17T21:24:28.286Z,65.51
2023-07-17T21:26:30.950Z,65.49
2023-07-17T21:28:33.766Z,65.42
2023-07-17T21:30:37.095Z,65.08
2023-07-17T21:32:40.086Z,65.09
2023-07-17T21:34:42.986Z,65.26
2023-07-17T21:36:45.899Z,64.86
2023-07-17T21:38:48.637Z,65.31
2023-07-17T21:40:51.369Z,64.88
2023-07-17T21:42:54.836Z,64.73
2023-07-17T21:44:57.908Z,64.63
2023-07-17T21:47:00.660Z,64.53
2023-07-17T21:49:03.426Z,64.54
2023-07-17T21:51:06.242Z,64.24
2023-07-17T21:53:15.245Z,64.40
2023-07-17T21:55:18.207Z,64.29
2023-07-17T21:57:21.620Z,64.05
2023-07-17T21:59:24.683Z,63.94
2023-07-17T22:01:27.477Z,64.18
2023-07-17T22:03:30.669Z,64.29
2023-07-17T22:05:33.469Z,64.28
2023-07-17T22:07:36.470Z,64.42
2023-07-17T22:09:39.302Z,64.59
2023-07-17T22:11:42.250Z,64.53
2023-07-17T22:13:44.927Z,65.09
2023-07-17T22:15:47.732Z,65.31
2023-07-17T22:17:50.725Z,65.46
2023-07-17T22:19:53.682Z,65.71
2023-07-17T22:21:59.321Z,65.92
2023-07-17T22:24:02.208Z,66.18
2023-07-17T22:26:05.132Z,66.71
2023-07-17T22:28:08.105Z,66.97
2023-07-17T22:30:11.348Z,67.41
2023-07-17T22:32:15.205Z,67.87
2023-07-17T22:34:18.446Z,67.86
2023-07-17T22:36:21.509Z,67.78
2023-07-17T22:38:24.221Z,68.04
2023-07-17T22:40:27.846Z,67.67
2023-07-17T22:42:30.867Z,67.73
2023-07-17T22:44:34.249Z,68.05
2023-07-17T22:46:38.858Z,68.53
2023-07-17T22:48:41.616Z,68.87
2023-07-17T22:50:46.806Z,68.63
2023-07-17T22:52:49.502Z,68.67
2023-07-17T22:54:53.675Z,69.21
2023-07-17T22:56:57.654Z,68.60
2023-07-17T22:59:00.619Z,68.51
2023-07-17T23:01:04.600Z,68.10
2023-07-17T23:03:07.517Z,68.43
2023-07-17T23:05:13.735Z,68.65
2023-07-17T23:07:16.556Z,68.59
2023-07-17T23:09:19.304Z,68.56
2023-07-17T23:11:22.152Z,68.29
2023-07-17T23:13:28.129Z,68.28
2023-07-17T23:15:30.877Z,68.27
2023-07-17T23:17:33.682Z,68.43
2023-07-17T23:19:36.531Z,68.55
2023-07-17T23:21:39.322Z,68.60
2023-07-17T23:23:42.424Z,68.76
2023-07-17T23:25:46.014Z,68.73
2023-07-17T23:27:48.778Z,68.68
2023-07-17T23:29:51.564Z,68.52
2023-07-17T23:31:54.356Z,68.36
2023-07-17T23:33:57.089Z,68.53
2023-07-17T23:35:59.872Z,68.53
2023-07-17T23:38:03.881Z,68.10
2023-07-17T23:40:10.362Z,67.69
2023-07-17T23:42:14.553Z,67.97
2023-07-17T23:44:17.285Z,67.64
2023-07-17T23:46:20.128Z,67.55
2023-07-17T23:48:23.184Z,66.96
2023-07-17T23:50:26.101Z,66.73
2023-07-17T23:52:31.337Z,66.39
2023-07-17T23:54:34.351Z,66.87
2023-07-17T23:56:39.604Z,66.91
2023-07-17T23:58:42.346Z,66.56
